Fayetteville Regional Grannis Field Fayetteville US
ICAO: KFAY
IATA: FAY
Category: Medium
Scheduled Services: Yes

Elevation: 189 ft
TransAlt. 18000 ft.

Airport Communications:
APP/DEP:125.175
ATIS:121.25
GND:121.7
RALEIGH RDO:25.54
TWR:118.3
UNICOM:122.95

KFAY Zoom In..

Runways:

(A) RW 04 length 7709 ft width 150 ft
ILS 110.50 / hdg 38

(B) RW 10 length 4801 ft width 150 ft
---- / hdg 98

(C) RW 22 length 7709 ft width 150 ft
---- / hdg 218

(D) RW 28 length 4801 ft width 150 ft
---- / hdg 278

Location; KFAY
Day. 23 / Time. 21.53 Zulu
* Altimeter: 29.79
* Temperature: 19° c. 66.2°f.
* Wind from: 260° Speed 17 kn with Gusts up to 26 kn.
Dewpoint: 02° c.
Visibility: 10 Statute Miles.
Clouds: Clear (automated report).

KFAY 232153Z 26017G26KT 10SM CLR 19/02 A2979 RMK AO2 PK WND 25029/2108 SLP082 T01940017


Wind From 260°
Speed 17 kn.

YouTube Music Video
 
jpsmedia.com for Web Design  worldairports.se 2018   terms of use